Colebrook, NH (03576)

5:22 PM EST on December 26, 2014 (GMT -0500)
Diamond Pond | Change Station
CLOSE
Current Station
Personal Weather Station
Location: Stewartstown, NH
Elevation: 2240 ft
Nearby Weather Stations

Elev 2240 ft 44.95 °N, 71.32 °W | Updated 7 minutes ago

Overcast
Overcast
32.0 °F
Feels Like 32 °F
N
2.0
Wind Variable Wind from North
Gusts 10.0 mph

Today
High -- | Low -- °F
--% Chance of Precip.
Yesterday
High -- | Low -- °F
Precip. -- in
7:22 AM 4:10 PM
Waxing Crescent, 29% visible
Pressure 30.07 in
Visibility 10.0 miles
Clouds Overcast 3200 ft
Windchill 32 °F
Dew Point 28 °F
Humidity 84%
Rainfall 0.00 in
Snow Depth Not available.
UV 0 out of 12
Pollen .10 out of 12
Air Quality Not available.
Flu Activity Not available.
METAR KBML 262152Z AUTO VRB04KT 10SM OVC032 03/M03 A3003 RMK AO2 SLP182 T00331033

More Conditions Fewer Conditions

Pressure 30.07 in
Visibility 10.0 miles
Clouds Overcast 3200 ft
Windchill 32 °F
Dew Point 28 °F
Humidity 84%
Rainfall 0.00 in
Snow Depth Not available.
UV 0 out of 12
Pollen .10 out of 12
Air Quality Not available.
Flu Activity Not available.
METAR KBML 262152Z AUTO VRB04KT 10SM OVC032 03/M03 A3003 RMK AO2 SLP182 T00331033

More Conditions Fewer Conditions

10-Day Weather Forecast

Almanac

Astronomy

Dec. 26, 2014 Rise Set
Actual Time
Civil Twilight
Nautical Twilight
Astronomical Twilight
Moon
Length of Visible Light
Length of Day
Tomorrow will be .
, % of the Moon is Illuminated

Today's Extremes

State Highs State Lows

Community

WunderPhotos

Upload Photos

1,780,737 photos uploaded!

WunderBlogs® & News

Nearby

Air Quality

  Air Quality AQ Index Pollutant
Not available.

Snow Depth

Station Depth Elevation

Earthquake Activity

City Distance Mag. Time & Date
Minimum magnitude displayed is 2.5.

Coastal Water Temperatures

Place Temperature

Nearby Weather Stations